Airfield :
LOGIN :

Register | Disclaimer

   EN    FR    IT 

 










Legend :    VFR   Marginal VFR   IFR   Intensive IFR   Very Intensive IFR
Visi :
Ceiling :
>= 8 km
>= 3000ft
5 to 8 km
1000 to 3000 ft
1500m to 5 km
500 to 1000 ft
800 to 1500m
200 to 500 ft
< 800m
< 200 ft
Symbols :   Thunderstorms  Fog  Heavy snow  Heavy precipitations  Wind > 20 kt
SIGMETs :     Misc.  Thunderstorms  Icing  Turbulence  Mountain Waves  Volcanic Ashes







- Airport Elevation : 978 ft
- IATA code : LNZ


LOWL - Linz

CURRENT METAR :
  • 152020Z AUTO 20003KT 160V230 9999 FEW040 BKN044 M02/M05 Q1023 R08/19//95 NOSIG

EXPIRED METARs :
  • 151950Z AUTO 21004KT 9999 FEW036 SCT042 BKN044 M02/M05 Q1023 R08/19//95 NOSIG
  • 151920Z AUTO 22005KT 9999 FEW036 SCT044 BKN048 M02/M05 Q1023 R08/19//95 NOSIG
  • 151850Z AUTO 23005KT 9999 FEW044 BKN050 M02/M05 Q1023 R08/19//95 NOSIG
  • 151820Z AUTO 23004KT 9999 OVC050 M02/M05 Q1023 R08/19//95 NOSIG
  • 151750Z AUTO 24004KT 9999 OVC050 M02/M04 Q1024 R08/19//95 NOSIG

TAF TAF LOWL
Valid from the 15 at 18:00 until the 16 at 18:00 UTC


151715Z 1518/1618 27004KT 9999 SCT020 BKN050 TXM01/1613Z TNM04/1607Z
BECMG 1521/1524 07005KT 8000 FEW025
PROB30 1600/1609 0500 FZBCFG SCT002
BECMG 1609/1612 09010KT 9999 SCT050 BKN100
TEMPO 1615/1618 8000 -RASN SCT015 BKN030
PROB30
TEMPO 1615/1618 -FZRA
No reported NOTAMs for that airfield.



MET'MAP, your aeronautical weather chart ! - Copyright ORBIFLY December 2007 - Disclaimer

ORBIFLY MET'MAP TEAM :

Programming & Development : Alexandra Zaïnal
Concept & Development : Baudouin d'Aumeries
Co-Development & Prog : Marc-Olivier Méhu
Technical & hardware support : Manuel Goepfert

Contact : metmap@orbifly.com




SOURCES & CREDITS :

   NOAA